Time;durP1;ratioP1;P1;durP2;ratioP2;P2;SDS_P1;SDS_P2;PMS_P1;PMS_P2;Temp;Humidity;BMP_temperature;BMP_pressure;BME280_temperature;BME280_humidity;BME280_pressure;Samples;Min_cycle;Max_cycle;Signal;HPM_P1;HPM_P2
2022/10/06 00:02:11;;;;;;;4.43;0.50;;;13.50;99.90;;;;;;5128493;27;20391;-73
2022/10/06 00:04:37;;;;;;;4.70;0.50;;;13.50;99.90;;;;;;5129956;27;20391;-73
2022/10/06 00:07:03;;;;;;;5.95;0.75;;;13.40;99.90;;;;;;5129517;27;20904;-73
2022/10/06 00:09:28;;;;;;;4.70;0.55;;;13.50;99.90;;;;;;5129588;27;20387;-73
2022/10/06 00:11:54;;;;;;;6.40;0.57;;;13.40;99.90;;;;;;5128568;27;20394;-73
2022/10/06 00:14:20;;;;;;;7.50;0.70;;;13.40;99.90;;;;;;5117668;27;20741;-73
2022/10/06 00:16:45;;;;;;;6.00;0.67;;;13.40;99.90;;;;;;5128693;27;20395;-74
2022/10/06 00:19:11;;;;;;;6.25;1.10;;;13.40;99.90;;;;;;5129196;27;20478;-73
2022/10/06 00:21:37;;;;;;;7.10;0.77;;;13.40;99.90;;;;;;5129391;27;20421;-73
2022/10/06 00:24:02;;;;;;;6.75;1.13;;;13.40;99.90;;;;;;5128550;27;20463;-73
2022/10/06 00:26:28;;;;;;;5.83;0.90;;;13.40;99.90;;;;;;5129410;27;20459;-73
2022/10/06 00:28:54;;;;;;;7.97;0.80;;;13.30;99.90;;;;;;5121543;27;20762;-73
2022/10/06 00:31:20;;;;;;;6.50;1.00;;;13.30;99.90;;;;;;5123639;27;20391;-73
2022/10/06 00:33:47;;;;;;;5.73;0.67;;;13.30;99.90;;;;;;5129525;27;20461;-73
2022/10/06 00:36:13;;;;;;;5.38;0.70;;;13.30;99.90;;;;;;5128762;27;20756;-73
2022/10/06 00:38:38;;;;;;;4.72;0.80;;;13.20;99.90;;;;;;5109204;27;20401;-73
2022/10/06 00:41:04;;;;;;;6.00;1.00;;;13.20;99.90;;;;;;5107693;28;20446;-73
2022/10/06 00:43:52;;;;;;;6.35;0.85;;;13.20;99.90;;;;;;5109586;27;20831;-74
2022/10/06 00:46:27;;;;;;;8.63;1.00;;;13.20;99.90;;;;;;5108221;27;20595;-73
2022/10/06 00:49:42;;;;;;;12.73;1.50;;;13.30;99.90;;;;;;5107800;28;20491;-73
2022/10/06 00:52:13;;;;;;;7.63;1.02;;;13.20;99.90;;;;;;5112173;27;20459;-73
2022/10/06 00:54:39;;;;;;;7.43;0.77;;;13.30;99.90;;;;;;5129264;27;20445;-73
2022/10/06 00:57:05;;;;;;;8.02;1.20;;;13.20;99.90;;;;;;5128680;27;20482;-73
2022/10/06 00:59:31;;;;;;;6.00;0.80;;;13.20;99.90;;;;;;5121457;27;20500;-73
2022/10/06 01:02:06;;;;;;;8.75;1.48;;;13.20;99.90;;;;;;5108823;28;20400;-73
2022/10/06 01:04:34;;;;;;;9.50;1.58;;;13.20;99.90;;;;;;5103375;27;20409;-73
2022/10/06 01:07:01;;;;;;;8.43;1.27;;;13.20;99.90;;;;;;5126569;27;20407;-73
2022/10/06 01:09:28;;;;;;;8.02;1.00;;;13.10;99.90;;;;;;5128507;27;20486;-73
2022/10/06 01:11:57;;;;;;;8.90;1.20;;;13.10;99.90;;;;;;5128066;27;20401;-73
2022/10/06 01:14:24;;;;;;;6.78;1.10;;;13.10;99.90;;;;;;5128576;27;20938;-74
2022/10/06 01:17:03;;;;;;;9.45;0.90;;;13.00;99.90;;;;;;5125292;27;20937;-73
2022/10/06 01:19:31;;;;;;;10.55;1.10;;;13.00;99.90;;;;;;5114830;27;20465;-73
2022/10/06 01:22:00;;;;;;;9.68;0.98;;;13.00;99.90;;;;;;5113016;27;20402;-73
2022/10/06 01:24:27;;;;;;;7.68;0.93;;;13.00;99.90;;;;;;5120211;27;20482;-73
2022/10/06 01:26:55;;;;;;;11.98;1.50;;;13.00;99.90;;;;;;5121713;27;20407;-73
2022/10/06 01:29:21;;;;;;;8.82;1.35;;;13.00;99.90;;;;;;5111465;27;20405;-73
2022/10/06 01:31:46;;;;;;;10.50;1.55;;;13.00;99.90;;;;;;5128528;27;20896;-73
2022/10/06 01:34:12;;;;;;;8.00;1.20;;;13.00;99.90;;;;;;5128244;27;20971;-73
2022/10/06 01:36:40;;;;;;;11.45;1.25;;;12.90;99.90;;;;;;5118328;27;20398;-73
2022/10/06 01:39:06;;;;;;;7.70;1.60;;;12.90;99.90;;;;;;5127174;27;20414;-73
2022/10/06 01:41:32;;;;;;;8.35;1.42;;;12.90;99.90;;;;;;5127878;27;20453;-73
2022/10/06 01:43:59;;;;;;;10.18;1.35;;;12.90;99.90;;;;;;5126612;27;20394;-73
2022/10/06 01:46:27;;;;;;;10.40;1.70;;;12.80;99.90;;;;;;5102254;27;20825;-73
2022/10/06 01:48:52;;;;;;;9.75;1.45;;;12.80;99.90;;;;;;5126630;27;20397;-73
2022/10/06 01:51:18;;;;;;;9.43;1.50;;;12.80;99.90;;;;;;5127798;27;20485;-73
2022/10/06 01:53:44;;;;;;;8.55;1.35;;;12.70;99.90;;;;;;5104489;28;20426;-73
2022/10/06 01:56:09;;;;;;;9.17;1.50;;;12.70;99.90;;;;;;5090170;28;20411;-73
2022/10/06 01:58:35;;;;;;;8.27;1.48;;;12.70;99.90;;;;;;5126639;27;20439;-73
2022/10/06 02:01:05;;;;;;;8.47;1.30;;;12.60;99.90;;;;;;5128162;27;20634;-73
2022/10/06 02:03:34;;;;;;;8.43;1.23;;;12.60;99.90;;;;;;5128465;27;20422;-73
2022/10/06 02:05:59;;;;;;;9.40;1.00;;;12.60;99.90;;;;;;5127577;27;20399;-73
2022/10/06 02:08:25;;;;;;;11.05;1.45;;;12.60;99.90;;;;;;5114808;28;20907;-73
2022/10/06 02:10:51;;;;;;;12.45;1.25;;;12.60;99.90;;;;;;5128105;27;20402;-73
2022/10/06 02:13:16;;;;;;;8.03;1.60;;;12.70;99.90;;;;;;5120691;27;20420;-73
2022/10/06 02:15:42;;;;;;;8.20;1.10;;;12.70;99.90;;;;;;5107925;28;20396;-73
2022/10/06 02:18:08;;;;;;;9.90;1.63;;;12.70;99.90;;;;;;5108092;28;20865;-74
2022/10/06 02:20:33;;;;;;;10.83;1.20;;;12.80;99.90;;;;;;5107832;28;20388;-73
2022/10/06 02:22:59;;;;;;;9.20;1.35;;;12.70;99.90;;;;;;5107880;28;20400;-73
2022/10/06 02:25:26;;;;;;;9.63;1.50;;;12.70;99.90;;;;;;5108523;28;20409;-74
2022/10/06 02:27:53;;;;;;;12.98;1.33;;;12.60;99.90;;;;;;5110159;28;20407;-73
2022/10/06 02:30:19;;;;;;;11.48;1.45;;;12.60;99.90;;;;;;5109610;28;20467;-74
2022/10/06 02:32:45;;;;;;;11.43;1.50;;;12.60;99.90;;;;;;5100838;28;20423;-73
2022/10/06 02:35:11;;;;;;;9.60;1.52;;;12.50;99.90;;;;;;5127162;27;20422;-73
2022/10/06 02:37:39;;;;;;;10.70;1.73;;;12.50;99.90;;;;;;5100337;28;20394;-73
2022/10/06 02:40:06;;;;;;;11.45;1.35;;;12.50;99.90;;;;;;5130100;27;20440;-73
2022/10/06 02:42:35;;;;;;;10.45;1.45;;;12.50;99.90;;;;;;5111867;27;20392;-75
2022/10/06 02:45:00;;;;;;;11.35;1.40;;;12.40;99.90;;;;;;5112144;27;20974;-75
2022/10/06 02:47:26;;;;;;;8.17;1.10;;;12.40;99.90;;;;;;5112066;27;20388;-73
2022/10/06 02:49:51;;;;;;;9.05;1.30;;;12.40;99.90;;;;;;5110681;27;20538;-74
2022/10/06 02:52:17;;;;;;;9.80;1.40;;;12.40;99.90;;;;;;5111794;27;20424;-73
2022/10/06 02:54:43;;;;;;;7.93;1.10;;;12.40;99.90;;;;;;5112109;27;20775;-73
2022/10/06 02:57:08;;;;;;;9.47;1.40;;;12.30;99.90;;;;;;5111682;27;20912;-73
2022/10/06 02:59:35;;;;;;;10.18;1.52;;;12.30;99.90;;;;;;5112288;27;20899;-73
2022/10/06 03:02:00;;;;;;;10.75;2.08;;;12.30;99.90;;;;;;5098275;27;20918;-73
2022/10/06 03:04:26;;;;;;;9.98;1.45;;;12.30;99.90;;;;;;5113278;27;20426;-73
2022/10/06 03:06:52;;;;;;;12.77;1.30;;;12.30;99.90;;;;;;5111052;27;20408;-73
2022/10/06 03:09:18;;;;;;;13.07;1.42;;;12.20;99.90;;;;;;5112485;27;20924;-73
2022/10/06 03:11:43;;;;;;;8.47;1.10;;;12.20;99.90;;;;;;5111686;27;20400;-73
2022/10/06 03:14:09;;;;;;;10.00;1.55;;;12.20;99.90;;;;;;5113061;27;20429;-73
2022/10/06 03:16:37;;;;;;;11.90;1.83;;;12.20;99.90;;;;;;5112634;28;20472;-73
2022/10/06 03:19:04;;;;;;;8.15;1.48;;;12.20;99.90;;;;;;5112743;27;20415;-73
2022/10/06 03:21:36;;;;;;;9.10;1.33;;;12.20;99.90;;;;;;5110975;27;20401;-74
2022/10/06 03:24:01;;;;;;;16.73;1.38;;;12.20;99.90;;;;;;5112517;27;20901;-73
2022/10/06 03:26:33;;;;;;;11.30;1.47;;;12.20;99.90;;;;;;5114536;27;20483;-73
2022/10/06 03:29:00;;;;;;;13.00;1.60;;;12.20;99.90;;;;;;5110703;28;20419;-73
2022/10/06 03:31:26;;;;;;;9.52;1.60;;;12.10;99.90;;;;;;5109842;27;20456;-73
2022/10/06 03:33:58;;;;;;;9.33;1.37;;;12.10;99.90;;;;;;5110171;27;20412;-73
2022/10/06 03:36:26;;;;;;;10.07;1.20;;;12.10;99.90;;;;;;5111120;28;20419;-73
2022/10/06 03:38:52;;;;;;;12.70;1.27;;;12.10;99.90;;;;;;5110609;27;20402;-73
2022/10/06 03:41:21;;;;;;;10.02;1.65;;;12.00;99.90;;;;;;5109524;28;20404;-73
2022/10/06 03:43:48;;;;;;;10.07;1.30;;;12.00;99.90;;;;;;5121363;27;20451;-73
2022/10/06 03:46:17;;;;;;;9.48;1.60;;;12.00;99.90;;;;;;5127845;27;20400;-73
2022/10/06 03:48:43;;;;;;;9.77;1.58;;;12.00;99.90;;;;;;5137498;27;20428;-73
2022/10/06 03:51:21;;;;;;;8.32;1.58;;;12.00;99.90;;;;;;5136753;27;20395;-73
2022/10/06 03:53:49;;;;;;;11.02;1.58;;;11.90;99.90;;;;;;5104848;27;20419;-73
2022/10/06 03:56:18;;;;;;;12.20;1.92;;;11.90;99.90;;;;;;5120903;27;20420;-73
2022/10/06 03:58:48;;;;;;;11.25;1.73;;;11.90;99.90;;;;;;5110236;28;20453;-73
2022/10/06 04:01:20;;;;;;;7.15;1.27;;;11.90;99.90;;;;;;5113749;27;20432;-73
2022/10/06 04:03:46;;;;;;;9.80;1.50;;;11.80;99.90;;;;;;5105011;27;20478;-73
2022/10/06 04:06:18;;;;;;;10.65;1.58;;;11.80;99.90;;;;;;5115374;27;20477;-73
2022/10/06 04:08:45;;;;;;;7.68;1.25;;;11.80;99.90;;;;;;5117191;27;20436;-73
2022/10/06 04:11:17;;;;;;;9.43;1.20;;;11.80;99.90;;;;;;5110121;28;20453;-73
2022/10/06 04:13:44;;;;;;;9.57;1.30;;;11.80;99.90;;;;;;5109502;28;20457;-73
2022/10/06 04:16:10;;;;;;;9.38;1.10;;;11.80;99.90;;;;;;5108799;28;20440;-73
2022/10/06 04:18:37;;;;;;;9.77;1.70;;;11.80;99.90;;;;;;5117842;28;20404;-73
2022/10/06 04:21:03;;;;;;;10.02;1.20;;;11.80;99.90;;;;;;5117962;27;20440;-73
2022/10/06 04:23:29;;;;;;;13.00;1.90;;;11.80;99.90;;;;;;5117596;27;20396;-73
2022/10/06 04:25:58;;;;;;;12.80;2.03;;;11.70;99.90;;;;;;5121736;27;20405;-73
2022/10/06 04:28:24;;;;;;;9.27;1.33;;;11.70;99.90;;;;;;5122360;27;20426;-73
2022/10/06 04:31:00;;;;;;;11.35;1.60;;;11.70;99.90;;;;;;5109977;28;20388;-73
2022/10/06 04:33:26;;;;;;;8.48;1.17;;;11.60;99.90;;;;;;5108224;28;20424;-73
2022/10/06 04:36:00;;;;;;;10.18;1.33;;;11.70;99.90;;;;;;5122554;27;20398;-73
2022/10/06 04:38:27;;;;;;;9.85;1.55;;;11.60;99.90;;;;;;5097079;28;20870;-73
2022/10/06 04:40:52;;;;;;;8.95;1.27;;;11.60;99.90;;;;;;5109472;28;20396;-73
2022/10/06 04:43:18;;;;;;;9.47;1.50;;;11.60;99.90;;;;;;5109634;27;20407;-73
2022/10/06 04:45:44;;;;;;;12.10;1.58;;;11.60;99.90;;;;;;5109301;28;20428;-73
2022/10/06 04:48:09;;;;;;;9.57;1.20;;;11.50;99.90;;;;;;5109246;27;20457;-74
2022/10/06 04:50:35;;;;;;;11.20;1.73;;;11.50;99.90;;;;;;5109750;27;20404;-73
2022/10/06 04:53:00;;;;;;;11.90;1.70;;;11.50;99.90;;;;;;5109663;28;20857;-73
2022/10/06 04:55:26;;;;;;;7.70;1.38;;;11.40;99.90;;;;;;5110444;27;20389;-73
2022/10/06 04:57:54;;;;;;;10.03;1.30;;;11.40;99.90;;;;;;5108608;27;20492;-73
2022/10/06 05:00:23;;;;;;;11.15;1.75;;;11.40;99.90;;;;;;5110751;27;20407;-73
2022/10/06 05:02:49;;;;;;;10.00;1.20;;;11.40;99.90;;;;;;5109169;27;20902;-73
2022/10/06 05:05:15;;;;;;;9.50;1.30;;;11.30;99.90;;;;;;5109935;27;20528;-73
2022/10/06 05:07:44;;;;;;;13.03;1.70;;;11.30;99.90;;;;;;5128941;27;20900;-73
2022/10/06 05:10:09;;;;;;;11.00;1.65;;;11.30;99.90;;;;;;5129039;27;20452;-73
2022/10/06 05:12:35;;;;;;;8.55;1.20;;;11.20;99.90;;;;;;5128963;27;20426;-73
2022/10/06 05:15:01;;;;;;;10.57;1.40;;;11.20;99.90;;;;;;5126671;27;20766;-73
2022/10/06 05:17:27;;;;;;;10.93;1.42;;;11.20;99.90;;;;;;5128688;27;20430;-73
2022/10/06 05:19:52;;;;;;;10.18;1.40;;;11.10;99.90;;;;;;5127797;27;20395;-73
2022/10/06 05:22:18;;;;;;;9.73;1.53;;;11.20;99.90;;;;;;5129043;27;20922;-73
2022/10/06 05:24:44;;;;;;;11.10;1.30;;;11.10;99.90;;;;;;5127980;27;20744;-73
2022/10/06 05:27:09;;;;;;;9.18;1.10;;;11.10;99.90;;;;;;5128944;27;20588;-73
2022/10/06 05:29:35;;;;;;;9.20;1.50;;;11.10;99.90;;;;;;5121229;27;20404;-73
2022/10/06 05:32:00;;;;;;;8.73;1.48;;;11.10;99.90;;;;;;5108130;28;20396;-73
2022/10/06 05:34:26;;;;;;;11.67;1.93;;;11.10;99.90;;;;;;5108057;28;20508;-73
2022/10/06 05:36:52;;;;;;;10.02;1.55;;;11.10;99.90;;;;;;5123954;27;20400;-73
2022/10/06 05:39:17;;;;;;;9.43;1.40;;;11.00;99.90;;;;;;5113434;27;20746;-74
2022/10/06 05:41:43;;;;;;;8.73;1.73;;;11.00;99.90;;;;;;5108011;27;20432;-72
2022/10/06 05:44:09;;;;;;;8.60;1.50;;;10.90;99.90;;;;;;5103694;28;20423;-73
2022/10/06 05:46:35;;;;;;;8.13;1.45;;;11.00;99.90;;;;;;5098824;28;20444;-73
2022/10/06 05:49:05;;;;;;;9.93;1.70;;;11.00;99.90;;;;;;5108994;27;20992;-73
2022/10/06 05:51:33;;;;;;;10.80;1.40;;;11.00;99.90;;;;;;5107679;28;20396;-74
2022/10/06 05:53:59;;;;;;;9.25;1.17;;;11.00;99.90;;;;;;5107895;28;20428;-73
2022/10/06 05:56:26;;;;;;;10.30;1.40;;;10.90;99.90;;;;;;5108160;28;20793;-73
2022/10/06 05:58:54;;;;;;;11.00;1.60;;;10.90;99.90;;;;;;5108010;28;20902;-73
2022/10/06 06:01:21;;;;;;;8.05;1.27;;;10.90;99.90;;;;;;5109920;28;20480;-74
2022/10/06 06:03:54;;;;;;;8.55;1.70;;;11.00;99.90;;;;;;5116807;27;20407;-74
2022/10/06 06:06:44;;;;;;;9.73;1.20;;;10.90;99.90;;;;;;5107065;28;20483;-73
2022/10/06 06:09:17;;;;;;;12.25;1.42;;;10.90;99.90;;;;;;5092633;28;20422;-73
2022/10/06 06:11:46;;;;;;;9.95;1.35;;;10.90;99.90;;;;;;5108575;28;20400;-73
2022/10/06 06:14:14;;;;;;;10.88;1.10;;;10.90;99.90;;;;;;5109658;28;20477;-73
2022/10/06 06:16:41;;;;;;;10.85;1.40;;;10.90;99.90;;;;;;5112298;28;20754;-73
2022/10/06 06:19:09;;;;;;;9.90;1.70;;;11.00;99.90;;;;;;5123637;27;20477;-73
2022/10/06 06:21:34;;;;;;;8.60;1.08;;;11.00;99.90;;;;;;5114642;27;20393;-73
2022/10/06 06:24:01;;;;;;;12.45;1.70;;;11.10;99.90;;;;;;5112171;28;20411;-73
2022/10/06 06:26:30;;;;;;;11.40;1.60;;;11.10;99.90;;;;;;5112439;27;20412;-73
2022/10/06 06:29:04;;;;;;;10.40;1.40;;;11.10;99.90;;;;;;5112201;28;20466;-74
2022/10/06 06:31:38;;;;;;;8.50;1.20;;;11.10;99.90;;;;;;5111044;28;20408;-73
2022/10/06 06:34:05;;;;;;;8.23;1.42;;;11.10;99.90;;;;;;5111970;28;20416;-73
2022/10/06 06:36:43;;;;;;;9.57;1.27;;;11.20;99.90;;;;;;5099545;28;20500;-73
2022/10/06 06:39:11;;;;;;;11.18;1.52;;;11.20;99.90;;;;;;5112113;28;20415;-73
2022/10/06 06:41:39;;;;;;;9.80;1.38;;;11.30;99.90;;;;;;5112842;28;20578;-73
2022/10/06 06:44:07;;;;;;;10.37;1.70;;;11.30;99.90;;;;;;5112305;28;20470;-73
2022/10/06 06:46:34;;;;;;;9.27;1.50;;;11.30;99.90;;;;;;5112019;28;20928;-73
2022/10/06 06:49:03;;;;;;;10.25;1.52;;;11.30;99.90;;;;;;5111792;28;20939;-73
2022/10/06 06:51:33;;;;;;;11.85;1.45;;;11.30;99.90;;;;;;5112202;28;21017;-73
2022/10/06 06:54:01;;;;;;;10.18;1.25;;;11.40;99.90;;;;;;5112018;28;20633;-73
2022/10/06 06:56:28;;;;;;;10.55;2.05;;;11.40;99.90;;;;;;5112177;28;20400;-73
2022/10/06 06:58:54;;;;;;;11.10;1.23;;;11.50;99.90;;;;;;5111595;28;20407;-74
2022/10/06 07:01:21;;;;;;;8.90;1.83;;;11.50;99.90;;;;;;5112304;28;20397;-73
2022/10/06 07:03:52;;;;;;;8.98;1.20;;;11.60;99.90;;;;;;5112010;28;20404;-73
2022/10/06 07:06:18;;;;;;;9.68;1.63;;;11.60;99.90;;;;;;5111952;28;20415;-74
2022/10/06 07:08:46;;;;;;;10.10;1.30;;;11.60;99.90;;;;;;5111132;28;20435;-73
2022/10/06 07:11:22;;;;;;;12.25;1.63;;;11.70;99.90;;;;;;5110990;28;20433;-73
2022/10/06 07:14:03;;;;;;;12.03;1.70;;;11.70;99.90;;;;;;5111606;28;20433;-73
2022/10/06 07:25:11;;;;;;;11.23;1.83;;;12.00;99.90;;;;;;5113254;27;20513;-73
2022/10/06 07:27:42;;;;;;;12.23;1.98;;;12.00;99.90;;;;;;5107650;28;20925;-73
2022/10/06 07:30:11;;;;;;;6.15;1.10;;;12.10;99.90;;;;;;5110778;27;20396;-74
2022/10/06 07:32:36;;;;;;;10.55;1.17;;;12.10;99.90;;;;;;5109508;28;20467;-73
2022/10/06 07:35:05;;;;;;;8.27;1.23;;;12.10;99.90;;;;;;5114125;27;20945;-74
2022/10/06 07:37:33;;;;;;;11.67;1.60;;;12.20;99.90;;;;;;5111425;27;20408;-76
2022/10/06 07:39:59;;;;;;;9.70;1.40;;;12.30;99.90;;;;;;5121019;27;20400;-75
2022/10/06 07:42:25;;;;;;;9.50;1.35;;;12.30;99.90;;;;;;5110570;27;20995;-73
2022/10/06 07:47:38;;;;;;;10.90;1.87;;;12.40;99.90;;;;;;5111124;28;20439;-73
2022/10/06 07:50:07;;;;;;;10.98;2.22;;;12.50;99.90;;;;;;5110743;28;20416;-73
2022/10/06 07:52:37;;;;;;;11.10;1.60;;;12.50;99.90;;;;;;5110609;28;20840;-73
2022/10/06 07:55:04;;;;;;;9.10;1.60;;;12.50;99.90;;;;;;5111001;28;20740;-73
2022/10/06 07:57:33;;;;;;;9.98;1.70;;;12.60;99.90;;;;;;5110810;28;20432;-73
2022/10/06 07:59:59;;;;;;;10.70;1.90;;;12.60;99.90;;;;;;5112575;27;20403;-73
2022/10/06 08:02:25;;;;;;;12.05;1.88;;;12.70;99.90;;;;;;5111089;28;20392;-73
2022/10/06 08:04:51;;;;;;;10.80;1.67;;;12.80;99.90;;;;;;5110491;27;21365;-74
2022/10/06 08:07:17;;;;;;;11.82;1.67;;;12.80;99.90;;;;;;5110897;27;20426;-73
2022/10/06 08:09:42;;;;;;;12.68;2.08;;;12.90;99.90;;;;;;5110684;28;20483;-73
2022/10/06 08:12:41;;;;;;;10.03;1.47;;;13.00;99.90;;;;;;5108927;27;20455;-73
2022/10/06 08:15:02;;;;;;;9.38;1.67;;;13.10;99.90;;;;;;5111268;27;20452;-74
2022/10/06 08:17:28;;;;;;;13.20;2.05;;;13.10;99.90;;;;;;5111251;27;20396;-74
2022/10/06 08:19:55;;;;;;;11.82;1.58;;;13.20;99.90;;;;;;5119219;27;20396;-74
2022/10/06 08:22:23;;;;;;;11.02;1.42;;;13.20;99.90;;;;;;5107449;28;20417;-74
2022/10/06 08:24:49;;;;;;;11.85;1.50;;;13.30;99.90;;;;;;5107682;28;20424;-73
2022/10/06 08:27:14;;;;;;;8.83;1.33;;;13.40;99.90;;;;;;5113605;27;20399;-74
2022/10/06 08:29:40;;;;;;;12.98;1.67;;;13.50;99.90;;;;;;5109051;28;20819;-74
2022/10/06 08:32:06;;;;;;;11.77;1.90;;;13.50;99.90;;;;;;5110025;27;20392;-73
2022/10/06 08:34:31;;;;;;;8.77;1.87;;;13.50;99.90;;;;;;5110080;28;20820;-73
2022/10/06 08:36:57;;;;;;;11.70;1.80;;;13.60;99.90;;;;;;5109126;28;20400;-73
2022/10/06 08:39:23;;;;;;;15.90;2.17;;;13.70;99.90;;;;;;5109614;28;20483;-73
2022/10/06 08:41:50;;;;;;;11.60;1.55;;;13.80;99.90;;;;;;5109600;28;20388;-74
2022/10/06 08:44:31;;;;;;;11.75;1.58;;;13.80;99.90;;;;;;5109857;28;20408;-74
2022/10/06 08:47:02;;;;;;;11.32;1.92;;;13.90;99.90;;;;;;5108975;28;20408;-74
2022/10/06 08:49:37;;;;;;;10.43;1.52;;;13.90;99.90;;;;;;5096836;28;20432;-73
2022/10/06 08:52:32;;;;;;;10.43;1.35;;;14.00;99.90;;;;;;5109634;28;20829;-74
2022/10/06 08:55:25;;;;;;;10.30;1.27;;;14.10;99.90;;;;;;5109368;28;20446;-73
2022/10/06 08:58:16;;;;;;;9.85;1.70;;;14.20;99.90;;;;;;5109527;28;20416;-73
2022/10/06 09:00:41;;;;;;;9.40;1.55;;;14.30;99.90;;;;;;5107612;28;20451;-73
2022/10/06 09:03:22;;;;;;;10.27;1.60;;;14.70;99.90;;;;;;5117110;27;20921;-74
2022/10/06 09:06:12;;;;;;;7.00;1.33;;;15.70;99.90;;;;;;5106033;27;20884;-74
2022/10/06 09:08:59;;;;;;;8.32;1.60;;;16.80;99.90;;;;;;5112257;27;20800;-72
2022/10/06 09:11:31;;;;;;;11.90;1.33;;;17.70;99.90;;;;;;5108783;28;20400;-71
2022/10/06 09:14:05;;;;;;;8.80;1.42;;;18.40;99.90;;;;;;5107572;27;21077;-71
2022/10/06 09:16:38;;;;;;;7.78;1.50;;;18.80;99.90;;;;;;5109108;28;20401;-71
2022/10/06 09:19:11;;;;;;;7.55;1.08;;;19.20;99.90;;;;;;5108838;28;20402;-71
2022/10/06 09:21:48;;;;;;;6.05;1.17;;;19.50;99.90;;;;;;5107400;28;20459;-72
2022/10/06 09:24:17;;;;;;;7.03;1.30;;;19.70;99.50;;;;;;5108685;28;20774;-71
2022/10/06 09:26:45;;;;;;;7.38;1.27;;;20.00;99.70;;;;;;5096482;28;20412;-71
2022/10/06 09:29:12;;;;;;;9.02;1.05;;;20.40;98.60;;;;;;5108532;28;20434;-72
2022/10/06 09:31:49;;;;;;;6.45;0.90;;;20.60;97.70;;;;;;5110626;27;21284;-72
2022/10/06 09:34:48;;;;;;;9.90;1.23;;;20.80;98.00;;;;;;5108739;28;20427;-72
2022/10/06 09:37:14;;;;;;;9.77;1.30;;;21.20;96.90;;;;;;5108531;28;20728;-72
2022/10/06 09:39:42;;;;;;;6.37;1.23;;;21.60;95.80;;;;;;5106844;28;20443;-72
2022/10/06 09:42:20;;;;;;;7.17;1.23;;;21.80;95.70;;;;;;5108863;28;20401;-72
2022/10/06 09:44:58;;;;;;;8.25;1.40;;;21.90;94.80;;;;;;5097036;28;20396;-71
2022/10/06 09:47:34;;;;;;;7.40;1.27;;;22.20;93.70;;;;;;5108678;28;20411;-72
2022/10/06 09:50:23;;;;;;;7.18;1.10;;;22.30;93.20;;;;;;5108160;28;20530;-71
2022/10/06 09:53:02;;;;;;;5.97;1.03;;;22.40;93.60;;;;;;5106219;27;20419;-72
2022/10/06 09:55:50;;;;;;;7.32;1.20;;;22.40;93.20;;;;;;5104269;28;20405;-72
2022/10/06 09:58:31;;;;;;;7.97;1.20;;;22.80;93.40;;;;;;5108087;28;20404;-71
2022/10/06 10:01:02;;;;;;;8.38;1.60;;;22.50;91.20;;;;;;5102663;28;20407;-72
2022/10/06 10:03:50;;;;;;;6.43;1.10;;;21.90;92.10;;;;;;5110405;28;20828;-72
2022/10/06 10:06:33;;;;;;;6.95;1.17;;;21.70;92.20;;;;;;5106912;28;20483;-72
2022/10/06 10:09:24;;;;;;;6.63;0.90;;;22.10;92.40;;;;;;5105368;28;20412;-72
2022/10/06 10:12:28;;;;;;;6.85;1.38;;;22.80;91.40;;;;;;5108352;28;20404;-72
2022/10/06 10:14:59;;;;;;;7.00;1.23;;;23.20;91.20;;;;;;5115686;27;20423;-72
2022/10/06 10:17:44;;;;;;;6.03;0.80;;;23.60;89.40;;;;;;5107178;28;20485;-72
2022/10/06 10:20:36;;;;;;;6.70;1.02;;;23.50;85.90;;;;;;5101908;28;20435;-72
2022/10/06 10:23:31;;;;;;;5.90;1.10;;;23.50;87.60;;;;;;5106700;28;20415;-74
2022/10/06 10:26:09;;;;;;;5.90;1.17;;;23.70;85.20;;;;;;5105783;28;20397;-72
2022/10/06 10:28:38;;;;;;;5.60;0.95;;;23.80;86.20;;;;;;5106732;28;20419;-72
2022/10/06 10:31:29;;;;;;;6.07;1.10;;;24.10;85.30;;;;;;5105971;28;20423;-72
2022/10/06 10:34:19;;;;;;;6.95;0.95;;;24.40;84.70;;;;;;5104503;28;21122;-72
2022/10/06 10:36:59;;;;;;;7.30;1.20;;;24.70;83.40;;;;;;5107538;28;20423;-72
2022/10/06 10:39:47;;;;;;;7.50;1.17;;;25.00;83.30;;;;;;5105277;28;20412;-72
2022/10/06 10:42:30;;;;;;;5.50;0.95;;;25.10;77.20;;;;;;5106351;28;20428;-72
2022/10/06 10:45:01;;;;;;;5.97;0.90;;;25.20;80.30;;;;;;5107715;28;20392;-72
2022/10/06 10:47:30;;;;;;;6.53;1.00;;;25.20;76.40;;;;;;5106558;28;20415;-72
2022/10/06 10:50:22;;;;;;;6.20;0.90;;;25.30;77.00;;;;;;5104204;28;20424;-72
2022/10/06 10:52:50;;;;;;;7.18;0.95;;;25.40;76.20;;;;;;5076838;28;20420;-72
2022/10/06 10:55:34;;;;;;;4.72;0.93;;;25.50;73.40;;;;;;5107857;28;20975;-72
2022/10/06 10:58:26;;;;;;;6.00;0.77;;;25.50;75.00;;;;;;5107397;28;20487;-72
2022/10/06 11:00:56;;;;;;;4.90;0.93;;;25.70;74.20;;;;;;5100884;27;20464;-72
2022/10/06 11:03:22;;;;;;;5.90;0.80;;;25.80;75.10;;;;;;5110996;27;20917;-72
2022/10/06 11:06:03;;;;;;;4.30;0.70;;;25.60;71.70;;;;;;5116535;28;20411;-73
2022/10/06 11:08:39;;;;;;;5.70;0.80;;;25.70;73.50;;;;;;5120459;27;20396;-73
2022/10/06 11:11:31;;;;;;;5.50;0.97;;;25.90;72.00;;;;;;5120915;27;20504;-71
2022/10/06 11:14:02;;;;;;;3.93;0.63;;;26.10;69.60;;;;;;5118697;27;20442;-73
2022/10/06 11:17:00;;;;;;;4.97;0.80;;;25.60;68.50;;;;;;5116455;27;20416;-72
2022/10/06 11:19:26;;;;;;;6.40;0.88;;;24.80;69.50;;;;;;5098764;28;20538;-72
2022/10/06 11:22:04;;;;;;;7.93;1.10;;;24.10;70.40;;;;;;5112045;27;20424;-72
2022/10/06 11:25:00;;;;;;;4.40;0.90;;;23.80;72.50;;;;;;5122950;27;20804;-72
2022/10/06 11:27:40;;;;;;;5.40;0.70;;;24.40;73.90;;;;;;5117879;27;20759;-72
2022/10/06 11:30:19;;;;;;;4.73;0.87;;;25.20;73.50;;;;;;5099364;28;20431;-72
2022/10/06 11:33:19;;;;;;;6.60;1.00;;;25.90;70.90;;;;;;5124013;27;20495;-73
2022/10/06 11:35:47;;;;;;;4.65;0.88;;;26.40;70.30;;;;;;5106524;27;20462;-72
2022/10/06 11:38:22;;;;;;;4.63;0.70;;;26.50;66.20;;;;;;5114300;27;20426;-73
2022/10/06 11:40:59;;;;;;;5.38;0.80;;;26.60;67.70;;;;;;5106403;28;20917;-73
2022/10/06 11:43:49;;;;;;;4.05;0.60;;;26.70;62.50;;;;;;5111717;28;20458;-72
2022/10/06 11:46:39;;;;;;;5.88;0.70;;;26.60;60.90;;;;;;5097831;28;20400;-74
2022/10/06 11:49:30;;;;;;;6.95;0.88;;;26.40;62.80;;;;;;5120425;28;20407;-73
2022/10/06 11:52:16;;;;;;;5.13;0.63;;;26.30;63.30;;;;;;5121825;27;20451;-72
2022/10/06 11:54:52;;;;;;;4.22;0.60;;;26.10;63.30;;;;;;5096056;27;20488;-73
2022/10/06 11:57:26;;;;;;;4.77;0.90;;;25.40;63.20;;;;;;5122513;27;20419;-72
2022/10/06 12:00:01;;;;;;;5.77;0.63;;;25.40;62.80;;;;;;5123413;28;20438;-72
2022/10/06 12:02:29;;;;;;;5.22;0.95;;;25.30;61.70;;;;;;5109479;28;20397;-71
2022/10/06 12:05:13;;;;;;;3.43;0.80;;;25.30;61.90;;;;;;5115468;27;20428;-72
2022/10/06 12:07:51;;;;;;;4.03;0.70;;;25.60;62.80;;;;;;5132539;27;20422;-72
2022/10/06 12:10:30;;;;;;;3.88;0.55;;;26.10;62.60;;;;;;5129233;27;20455;-72
2022/10/06 12:13:15;;;;;;;3.50;0.50;;;26.50;62.40;;;;;;5123856;27;20886;-72
2022/10/06 12:16:29;;;;;;;4.32;0.70;;;26.90;61.10;;;;;;5100055;28;20958;-71
2022/10/06 12:19:06;;;;;;;6.43;1.03;;;27.10;58.90;;;;;;5099069;28;21035;-72
2022/10/06 12:21:47;;;;;;;4.10;0.50;;;26.90;57.90;;;;;;5108901;28;20418;-72
2022/10/06 12:24:24;;;;;;;2.88;0.47;;;26.70;56.40;;;;;;5109688;28;20411;-72
2022/10/06 12:27:17;;;;;;;3.95;0.50;;;26.60;58.30;;;;;;5097999;28;20470;-72
2022/10/06 12:30:04;;;;;;;5.32;0.60;;;26.80;57.60;;;;;;5108808;28;20420;-72
2022/10/06 12:32:50;;;;;;;4.13;0.43;;;27.20;57.40;;;;;;5109511;28;20404;-72
2022/10/06 12:35:35;;;;;;;4.28;0.55;;;27.10;56.20;;;;;;5107729;28;20436;-72
2022/10/06 12:38:25;;;;;;;3.37;0.57;;;26.90;55.60;;;;;;5108765;28;20415;-71
2022/10/06 12:40:54;;;;;;;4.53;0.55;;;27.00;56.90;;;;;;5107373;28;20439;-72
2022/10/06 12:43:27;;;;;;;4.85;0.70;;;27.40;55.50;;;;;;5108623;28;20417;-72
2022/10/06 12:46:03;;;;;;;5.07;0.55;;;27.40;55.80;;;;;;5109824;28;20910;-72
2022/10/06 12:48:41;;;;;;;3.53;0.40;;;27.30;54.10;;;;;;5108111;28;20424;-73
2022/10/06 12:51:12;;;;;;;3.30;0.50;;;27.20;55.30;;;;;;5109073;28;20404;-72
2022/10/06 12:54:02;;;;;;;3.25;0.50;;;27.30;55.60;;;;;;5109557;28;20439;-72
2022/10/06 12:56:36;;;;;;;4.05;0.60;;;27.50;55.10;;;;;;5106208;28;20408;-72
2022/10/06 12:59:21;;;;;;;4.23;0.50;;;27.70;54.60;;;;;;5109247;28;20778;-72
2022/10/06 13:01:52;;;;;;;3.65;0.68;;;27.80;55.40;;;;;;5108756;27;20470;-72
2022/10/06 13:04:33;;;;;;;4.78;0.57;;;27.90;54.80;;;;;;5102842;27;20416;-72
2022/10/06 13:07:04;;;;;;;4.80;0.65;;;27.80;55.50;;;;;;5110594;27;20416;-73
2022/10/06 13:09:30;;;;;;;4.03;0.60;;;27.80;53.70;;;;;;5105492;28;20409;-74
2022/10/06 13:11:57;;;;;;;4.85;0.57;;;27.80;53.30;;;;;;5108481;27;20496;-72
2022/10/06 13:14:22;;;;;;;4.25;0.57;;;27.80;54.20;;;;;;5107618;28;20432;-73
2022/10/06 13:16:48;;;;;;;3.63;0.53;;;27.80;53.70;;;;;;5107347;28;20422;-73
2022/10/06 13:19:18;;;;;;;4.55;0.68;;;28.00;53.50;;;;;;5106652;28;20416;-73